Time;durP1;ratioP1;P1;durP2;ratioP2;P2;SDS_P1;SDS_P2;PMS_P1;PMS_P2;Temp;Humidity;BMP_temperature;BMP_pressure;BME280_temperature;BME280_humidity;BME280_pressure;Samples;Min_cycle;Max_cycle;Signal;HPM_P1;HPM_P2
2023/01/10 00:01:05;;;;;;;48.23;21.17;;;6.80;99.90;;;;;;4978042;28;20193;-74
2023/01/10 00:03:32;;;;;;;54.13;22.57;;;6.70;99.90;;;;;;4995537;28;20205;-75
2023/01/10 00:05:59;;;;;;;55.80;22.70;;;6.80;99.90;;;;;;4978098;28;20212;-73
2023/01/10 00:08:26;;;;;;;56.77;22.63;;;6.90;99.90;;;;;;4995849;28;20217;-75
2023/01/10 00:10:53;;;;;;;53.93;22.73;;;6.90;99.90;;;;;;4994050;28;20196;-75
2023/01/10 00:13:25;;;;;;;56.60;23.60;;;6.80;99.90;;;;;;4977757;28;20203;-74
2023/01/10 00:15:56;;;;;;;58.93;23.83;;;6.80;99.90;;;;;;4995471;28;20600;-76
2023/01/10 00:18:23;;;;;;;62.03;24.30;;;6.70;99.90;;;;;;4978714;28;20629;-76
2023/01/10 00:20:50;;;;;;;56.83;22.93;;;6.70;99.90;;;;;;4978029;28;20201;-76
2023/01/10 00:23:21;;;;;;;57.83;24.00;;;6.70;99.90;;;;;;4994066;28;20225;-76
2023/01/10 00:25:48;;;;;;;59.50;24.17;;;6.70;99.90;;;;;;4977636;28;20209;-76
2023/01/10 00:28:22;;;;;;;56.17;23.97;;;6.80;99.90;;;;;;4994196;28;20660;-76
2023/01/10 00:31:00;;;;;;;58.70;23.80;;;6.80;99.90;;;;;;4978043;28;20199;-81
2023/01/10 00:33:36;;;;;;;56.20;23.77;;;6.80;99.90;;;;;;4974868;28;20212;-80
2023/01/10 00:36:06;;;;;;;54.63;22.50;;;6.80;99.90;;;;;;4976875;28;20195;-80
2023/01/10 00:38:34;;;;;;;56.83;23.23;;;6.80;99.90;;;;;;4975444;28;20683;-81
2023/01/10 00:41:02;;;;;;;59.17;24.40;;;6.80;99.90;;;;;;4974989;28;20209;-80
2023/01/10 00:46:14;;;;;;;61.33;24.13;;;6.80;99.90;;;;;;4975091;28;20199;-81
2023/01/10 00:48:41;;;;;;;56.53;23.00;;;6.90;99.90;;;;;;4975426;28;20596;-80
2023/01/10 00:51:08;;;;;;;56.63;23.47;;;6.80;99.90;;;;;;4974479;28;20196;-78
2023/01/10 00:53:35;;;;;;;59.10;23.60;;;6.90;99.90;;;;;;4958024;28;20207;-78
2023/01/10 00:56:03;;;;;;;57.53;24.50;;;6.90;99.90;;;;;;4957236;28;20236;-79
2023/01/10 00:58:31;;;;;;;59.50;24.20;;;6.90;99.90;;;;;;4975372;28;20198;-78
2023/01/10 01:00:58;;;;;;;59.57;24.53;;;7.00;99.90;;;;;;4942657;28;20196;-80
2023/01/10 01:03:25;;;;;;;63.60;24.60;;;6.90;99.90;;;;;;4975531;28;20194;-80
2023/01/10 01:05:52;;;;;;;56.77;23.53;;;7.00;99.90;;;;;;4974355;28;20618;-79
2023/01/10 01:08:20;;;;;;;56.30;23.40;;;6.80;99.90;;;;;;4973903;28;20199;-79
2023/01/10 01:10:47;;;;;;;60.13;24.47;;;6.70;99.90;;;;;;4973967;28;20576;-80
2023/01/10 01:13:17;;;;;;;62.23;24.03;;;6.80;99.90;;;;;;4974463;28;20223;-80
2023/01/10 01:15:44;;;;;;;63.57;26.03;;;6.80;99.90;;;;;;4974281;28;20716;-80
2023/01/10 01:18:14;;;;;;;69.17;24.63;;;6.80;99.90;;;;;;4974435;28;20642;-81
2023/01/10 01:20:42;;;;;;;61.37;24.67;;;6.90;99.90;;;;;;4974342;28;20221;-80
2023/01/10 01:23:09;;;;;;;66.23;24.73;;;6.90;99.90;;;;;;4974167;28;20212;-81
2023/01/10 01:25:36;;;;;;;64.03;25.13;;;7.00;99.90;;;;;;4973967;28;20602;-80
2023/01/10 01:28:03;;;;;;;64.80;25.10;;;6.90;99.90;;;;;;4974557;28;20669;-81
2023/01/10 01:30:29;;;;;;;61.83;23.23;;;6.90;99.90;;;;;;4973795;28;20291;-79
2023/01/10 01:32:56;;;;;;;63.30;25.10;;;6.90;99.90;;;;;;4975181;28;20547;-81
2023/01/10 01:35:24;;;;;;;71.93;26.37;;;6.90;99.90;;;;;;4957517;28;20231;-83
2023/01/10 01:37:51;;;;;;;65.63;27.37;;;6.80;99.90;;;;;;4973706;28;20707;-81
2023/01/10 01:40:22;;;;;;;71.67;26.47;;;6.90;99.90;;;;;;4957479;28;20193;-80
2023/01/10 01:42:54;;;;;;;66.80;25.40;;;7.00;99.90;;;;;;4973584;28;20212;-81
2023/01/10 01:45:38;;;;;;;67.53;27.17;;;6.90;99.90;;;;;;4975082;28;20708;-80
2023/01/10 01:48:20;;;;;;;67.13;25.03;;;6.90;99.90;;;;;;4975612;28;20572;-81
2023/01/10 01:50:55;;;;;;;65.97;25.73;;;6.80;99.90;;;;;;4974122;28;20199;-83
2023/01/10 01:53:34;;;;;;;73.03;26.60;;;6.90;99.90;;;;;;4973669;28;20199;-79
2023/01/10 01:56:06;;;;;;;66.83;26.70;;;6.90;99.90;;;;;;4973613;28;20233;-81
2023/01/10 01:58:43;;;;;;;69.37;27.23;;;6.70;99.90;;;;;;4974861;28;20194;-80
2023/01/10 02:01:11;;;;;;;65.47;25.87;;;6.70;99.90;;;;;;4957408;28;20652;-80
2023/01/10 02:03:40;;;;;;;71.37;27.20;;;6.90;99.90;;;;;;4973759;28;20265;-80
2023/01/10 02:06:08;;;;;;;71.00;27.73;;;6.90;99.90;;;;;;4957252;28;20208;-81
2023/01/10 02:08:36;;;;;;;69.30;28.03;;;6.90;99.90;;;;;;4973217;28;20717;-81
2023/01/10 02:11:09;;;;;;;69.73;27.37;;;7.00;99.90;;;;;;4974433;28;20227;-79
2023/01/10 02:13:40;;;;;;;74.37;28.37;;;6.90;99.90;;;;;;4974115;28;20217;-81
2023/01/10 02:16:08;;;;;;;69.07;26.93;;;6.80;99.90;;;;;;4974254;28;20213;-83
2023/01/10 02:18:37;;;;;;;75.67;27.43;;;6.90;99.90;;;;;;4974163;28;20193;-81
2023/01/10 02:21:07;;;;;;;68.60;26.90;;;6.80;99.90;;;;;;4973100;28;20207;-80
2023/01/10 02:23:49;;;;;;;68.30;26.97;;;6.70;99.90;;;;;;4957106;28;20294;-80
2023/01/10 02:26:37;;;;;;;68.03;27.80;;;6.70;99.90;;;;;;4974021;28;20765;-81
2023/01/10 02:29:20;;;;;;;69.03;28.23;;;6.70;99.90;;;;;;4956998;28;20196;-81
2023/01/10 02:32:18;;;;;;;65.33;26.57;;;6.60;99.90;;;;;;4973338;28;20654;-78
2023/01/10 02:35:18;;;;;;;75.93;28.03;;;6.70;99.90;;;;;;4972964;28;20216;-81
2023/01/10 02:38:27;;;;;;;78.80;29.43;;;6.60;99.90;;;;;;4974340;28;20299;-81
2023/01/10 02:41:09;;;;;;;78.73;29.17;;;6.60;99.90;;;;;;4973034;28;20295;-80
2023/01/10 02:43:44;;;;;;;75.87;29.23;;;6.70;99.90;;;;;;4973233;28;20191;-80
2023/01/10 02:46:23;;;;;;;73.43;28.13;;;6.70;99.90;;;;;;4957167;28;20277;-82
2023/01/10 02:48:52;;;;;;;72.70;28.10;;;6.60;99.90;;;;;;4956735;28;20214;-80
2023/01/10 02:51:26;;;;;;;75.10;28.17;;;6.70;99.90;;;;;;4972855;28;20234;-82
2023/01/10 02:54:00;;;;;;;75.90;27.93;;;6.70;99.90;;;;;;4972921;28;20196;-83
2023/01/10 02:57:17;;;;;;;74.40;29.10;;;6.60;99.90;;;;;;4969896;28;20269;-80
2023/01/10 02:59:53;;;;;;;74.43;27.93;;;6.60;99.90;;;;;;4933912;29;20682;-82
2023/01/10 03:02:34;;;;;;;69.70;28.37;;;6.70;99.90;;;;;;4918004;29;20617;-81
2023/01/10 03:05:26;;;;;;;71.03;27.90;;;6.60;99.90;;;;;;4933533;29;20202;-78
2023/01/10 03:08:04;;;;;;;74.47;28.57;;;6.70;99.90;;;;;;4933683;29;20691;-80
2023/01/10 03:10:44;;;;;;;66.20;27.90;;;6.70;99.90;;;;;;4933545;29;20213;-80
2023/01/10 03:13:30;;;;;;;68.13;27.33;;;6.70;99.90;;;;;;4933724;29;20659;-81
2023/01/10 03:16:00;;;;;;;78.33;29.00;;;6.80;99.90;;;;;;4917853;29;20232;-83
2023/01/10 03:18:34;;;;;;;71.93;28.53;;;6.70;99.90;;;;;;4933678;29;20681;-81
2023/01/10 03:21:04;;;;;;;72.53;27.77;;;6.70;99.90;;;;;;4917522;29;20223;-81
2023/01/10 03:23:33;;;;;;;68.80;28.83;;;6.80;99.90;;;;;;4933697;29;20783;-83
2023/01/10 03:26:03;;;;;;;61.07;25.53;;;6.90;99.90;;;;;;4933357;29;20207;-80
2023/01/10 03:28:53;;;;;;;62.30;26.17;;;6.80;99.90;;;;;;4933711;29;20610;-81
2023/01/10 03:31:29;;;;;;;61.80;26.33;;;6.80;99.90;;;;;;4934222;29;20737;-84
2023/01/10 03:33:56;;;;;;;63.23;25.33;;;6.80;99.90;;;;;;4937144;29;20194;-82
2023/01/10 03:36:43;;;;;;;60.63;25.53;;;6.90;99.90;;;;;;4957074;29;20238;-80
2023/01/10 03:39:38;;;;;;;64.00;25.47;;;6.70;99.90;;;;;;4972806;28;20577;-81
2023/01/10 03:42:22;;;;;;;64.67;26.17;;;6.60;99.90;;;;;;4958097;28;20233;-81
2023/01/10 03:45:05;;;;;;;63.23;26.13;;;6.70;99.90;;;;;;4956695;29;20182;-79
2023/01/10 03:47:44;;;;;;;61.43;26.67;;;6.80;99.90;;;;;;4940635;29;20212;-81
2023/01/10 03:50:17;;;;;;;63.60;26.53;;;6.80;99.90;;;;;;4972745;28;20228;-81
2023/01/10 03:52:44;;;;;;;59.73;25.83;;;6.80;99.90;;;;;;4956486;29;20209;-80
2023/01/10 03:55:15;;;;;;;60.53;25.00;;;6.90;99.90;;;;;;4955926;29;20576;-81
2023/01/10 03:57:44;;;;;;;64.37;25.57;;;6.80;99.90;;;;;;4974920;28;20239;-84
2023/01/10 04:00:12;;;;;;;58.87;25.17;;;6.90;99.90;;;;;;4976981;28;20228;-81
2023/01/10 04:02:39;;;;;;;59.47;24.87;;;6.90;99.90;;;;;;4977492;28;20197;-82
2023/01/10 04:05:07;;;;;;;59.50;24.00;;;7.10;99.90;;;;;;4976837;28;20208;-81
2023/01/10 04:07:34;;;;;;;55.07;22.83;;;7.00;99.90;;;;;;4975275;28;20666;-81
2023/01/10 04:10:01;;;;;;;58.87;23.63;;;6.80;99.90;;;;;;4975168;28;20274;-81
2023/01/10 04:12:28;;;;;;;59.00;24.40;;;6.90;99.90;;;;;;4976634;28;20197;-82
2023/01/10 04:14:54;;;;;;;56.03;22.70;;;7.00;99.90;;;;;;4975097;28;20241;-79
2023/01/10 04:17:21;;;;;;;56.13;22.17;;;6.90;99.90;;;;;;4975345;28;20208;-82
2023/01/10 04:19:48;;;;;;;53.90;22.73;;;6.90;99.90;;;;;;4976821;28;20192;-81
2023/01/10 04:22:15;;;;;;;59.60;22.53;;;6.90;99.90;;;;;;4975359;28;20303;-78
2023/01/10 04:24:43;;;;;;;55.60;22.27;;;6.90;99.90;;;;;;4974601;28;20204;-79
2023/01/10 04:27:10;;;;;;;57.50;21.57;;;6.90;99.90;;;;;;4974541;28;20602;-79
2023/01/10 04:29:37;;;;;;;63.07;22.83;;;6.90;99.90;;;;;;4976077;28;20205;-78
2023/01/10 04:32:04;;;;;;;54.63;22.93;;;6.90;99.90;;;;;;4974857;28;20232;-83
2023/01/10 04:34:30;;;;;;;60.40;23.13;;;7.00;99.90;;;;;;4974495;28;20201;-80
2023/01/10 04:36:57;;;;;;;56.77;23.50;;;7.00;99.90;;;;;;4958459;28;20228;-79
2023/01/10 04:39:24;;;;;;;58.03;22.77;;;7.10;99.90;;;;;;4975551;28;20227;-82
2023/01/10 04:41:51;;;;;;;50.43;22.10;;;7.00;99.90;;;;;;4973933;28;20210;-79
2023/01/10 04:44:18;;;;;;;63.70;23.43;;;7.10;99.90;;;;;;4974560;28;20204;-80
2023/01/10 04:46:45;;;;;;;59.37;23.10;;;7.00;99.90;;;;;;4974206;28;20198;-77
2023/01/10 04:49:13;;;;;;;59.60;23.30;;;7.10;99.90;;;;;;4974324;28;20206;-82
2023/01/10 04:51:39;;;;;;;57.73;23.20;;;7.00;99.90;;;;;;4974449;28;20201;-81
2023/01/10 04:54:06;;;;;;;56.27;22.63;;;7.10;99.90;;;;;;4975393;28;20208;-79
2023/01/10 04:56:33;;;;;;;55.43;22.30;;;7.00;99.90;;;;;;4973880;28;20248;-80
2023/01/10 04:59:00;;;;;;;51.97;20.97;;;7.00;99.90;;;;;;4974307;28;20191;-79
2023/01/10 05:01:27;;;;;;;55.77;22.87;;;7.00;99.90;;;;;;4974136;28;20201;-79
2023/01/10 05:03:55;;;;;;;57.07;23.57;;;7.10;99.90;;;;;;4974075;28;20222;-80
2023/01/10 05:06:23;;;;;;;54.87;21.30;;;7.20;99.90;;;;;;4974414;28;20577;-84
2023/01/10 05:08:50;;;;;;;55.60;22.57;;;7.10;99.90;;;;;;4975354;28;20279;-81
2023/01/10 05:11:17;;;;;;;61.03;24.13;;;7.20;99.90;;;;;;4975015;28;20669;-80
2023/01/10 05:13:44;;;;;;;53.27;21.80;;;7.20;99.90;;;;;;4959929;28;20200;-80
2023/01/10 05:16:13;;;;;;;58.00;23.27;;;7.20;99.90;;;;;;4975264;28;20259;-81
2023/01/10 05:18:40;;;;;;;64.93;24.33;;;7.10;99.90;;;;;;4958078;28;20259;-78
2023/01/10 05:21:09;;;;;;;59.23;23.90;;;7.10;99.90;;;;;;4975510;28;20200;-80
2023/01/10 05:23:36;;;;;;;64.80;25.23;;;7.10;99.90;;;;;;4976300;28;20280;-81
2023/01/10 05:26:13;;;;;;;62.77;24.47;;;7.10;99.90;;;;;;4974494;28;20207;-80
2023/01/10 05:28:40;;;;;;;64.17;23.57;;;7.00;99.90;;;;;;4974908;28;20303;-79
2023/01/10 05:31:13;;;;;;;70.30;26.50;;;6.90;99.90;;;;;;4974983;28;20277;-83
2023/01/10 05:33:44;;;;;;;69.27;25.93;;;7.00;99.90;;;;;;4973729;28;20687;-83
2023/01/10 05:36:11;;;;;;;67.27;25.97;;;6.90;99.90;;;;;;4973301;28;20226;-79
2023/01/10 05:38:38;;;;;;;66.77;25.77;;;6.80;99.90;;;;;;4973476;28;20561;-79
2023/01/10 05:41:05;;;;;;;64.23;25.43;;;6.90;99.90;;;;;;4973842;28;20209;-84
2023/01/10 05:43:32;;;;;;;61.93;24.73;;;6.70;99.90;;;;;;4973891;28;20199;-78
2023/01/10 05:45:59;;;;;;;70.87;26.13;;;6.90;99.90;;;;;;4973564;28;20195;-80
2023/01/10 05:48:26;;;;;;;65.50;25.73;;;6.90;99.90;;;;;;4974234;28;20231;-81
2023/01/10 05:50:53;;;;;;;70.87;26.40;;;6.90;99.90;;;;;;4974352;28;20211;-79
2023/01/10 05:53:19;;;;;;;61.67;24.70;;;6.70;99.90;;;;;;4973228;28;20558;-81
2023/01/10 05:56:00;;;;;;;68.10;25.73;;;6.80;99.90;;;;;;4973998;28;20221;-78
2023/01/10 05:58:28;;;;;;;66.77;24.83;;;6.80;99.90;;;;;;4957979;28;20219;-80
2023/01/10 06:00:58;;;;;;;66.57;25.73;;;6.70;99.90;;;;;;4974963;28;20281;-80
2023/01/10 06:03:25;;;;;;;66.47;25.37;;;6.70;99.90;;;;;;4974622;28;20592;-79
2023/01/10 06:05:54;;;;;;;60.77;24.03;;;6.70;99.90;;;;;;4973238;28;20661;-80
2023/01/10 06:08:21;;;;;;;68.70;24.73;;;6.80;99.90;;;;;;4957586;28;20568;-81
2023/01/10 06:10:48;;;;;;;64.00;24.10;;;6.80;99.90;;;;;;4973480;28;20253;-79
2023/01/10 06:13:17;;;;;;;67.33;24.27;;;6.80;99.90;;;;;;4974742;28;20189;-82
2023/01/10 06:15:46;;;;;;;61.83;24.37;;;6.90;99.90;;;;;;4974496;28;20220;-79
2023/01/10 06:18:13;;;;;;;65.20;25.10;;;7.00;99.90;;;;;;4973496;28;20537;-82
2023/01/10 06:20:42;;;;;;;62.97;24.17;;;7.00;99.90;;;;;;4957087;28;20262;-81
2023/01/10 06:23:09;;;;;;;64.20;24.60;;;7.00;99.90;;;;;;4972998;28;20499;-81
2023/01/10 06:25:39;;;;;;;61.83;23.23;;;7.10;99.90;;;;;;4973911;28;20199;-81
2023/01/10 06:28:11;;;;;;;61.00;23.83;;;7.10;99.90;;;;;;4974287;28;20530;-79
2023/01/10 06:30:40;;;;;;;58.97;24.30;;;7.20;99.90;;;;;;4972843;28;20648;-80
2023/01/10 06:33:09;;;;;;;58.23;23.23;;;7.10;99.90;;;;;;4974265;28;20596;-79
2023/01/10 06:35:36;;;;;;;59.53;22.60;;;7.10;99.90;;;;;;4973316;28;20319;-80
2023/01/10 06:38:03;;;;;;;63.23;22.73;;;7.10;99.90;;;;;;4957037;28;20223;-79
2023/01/10 06:40:30;;;;;;;63.97;23.17;;;7.10;99.90;;;;;;4973976;28;20561;-82
2023/01/10 06:42:58;;;;;;;61.70;22.40;;;7.00;99.90;;;;;;4974512;28;20189;-83
2023/01/10 06:45:25;;;;;;;61.90;23.07;;;7.10;99.90;;;;;;4957619;28;20207;-80
2023/01/10 06:47:51;;;;;;;67.50;23.97;;;7.00;99.90;;;;;;4974073;28;20192;-80
2023/01/10 06:50:18;;;;;;;62.97;23.10;;;7.10;99.90;;;;;;4974401;28;20202;-83
2023/01/10 06:52:45;;;;;;;64.63;23.20;;;7.00;99.90;;;;;;4974398;28;20205;-79
2023/01/10 06:55:12;;;;;;;61.27;23.07;;;7.10;99.90;;;;;;4972341;28;20202;-80
2023/01/10 06:57:39;;;;;;;64.37;23.27;;;7.00;99.90;;;;;;4972178;28;20714;-79
2023/01/10 07:00:08;;;;;;;63.40;22.97;;;6.90;99.90;;;;;;4973986;28;20189;-80
2023/01/10 07:02:36;;;;;;;62.07;22.60;;;6.90;99.90;;;;;;4972386;28;20204;-80
2023/01/10 07:05:03;;;;;;;63.03;23.30;;;7.00;99.90;;;;;;4972670;28;20217;-77
2023/01/10 07:07:30;;;;;;;70.97;24.53;;;6.90;99.90;;;;;;4960060;28;20204;-77
2023/01/10 07:09:58;;;;;;;66.43;23.47;;;6.80;99.90;;;;;;4975966;28;20204;-78
2023/01/10 07:12:25;;;;;;;66.63;23.93;;;6.80;99.90;;;;;;4976268;28;20293;-79
2023/01/10 07:14:52;;;;;;;61.13;23.80;;;6.80;99.90;;;;;;4976205;28;20198;-79
2023/01/10 07:17:19;;;;;;;64.63;24.30;;;6.90;99.90;;;;;;4976084;28;20320;-77
2023/01/10 07:19:46;;;;;;;62.80;24.37;;;6.90;99.90;;;;;;4977132;28;20192;-77
2023/01/10 07:22:13;;;;;;;74.03;24.73;;;6.90;99.90;;;;;;4976263;28;20212;-77
2023/01/10 07:24:39;;;;;;;66.03;24.10;;;6.80;99.90;;;;;;4975523;28;20207;-77
2023/01/10 07:27:06;;;;;;;66.13;24.17;;;6.80;99.90;;;;;;4975938;28;20200;-79
2023/01/10 07:29:33;;;;;;;69.07;24.00;;;6.80;99.90;;;;;;4975901;28;20209;-79
2023/01/10 07:32:00;;;;;;;71.63;24.57;;;6.80;99.90;;;;;;4976100;28;20197;-77
2023/01/10 07:34:27;;;;;;;64.53;23.70;;;6.80;99.90;;;;;;4975784;28;20222;-80
2023/01/10 07:36:54;;;;;;;65.70;23.77;;;6.80;99.90;;;;;;4978650;28;21098;-80
2023/01/10 07:39:21;;;;;;;70.13;24.97;;;6.80;99.90;;;;;;4993504;28;20220;-78
2023/01/10 07:41:49;;;;;;;64.40;23.33;;;6.90;99.90;;;;;;4978550;28;20203;-77
2023/01/10 07:44:16;;;;;;;69.07;24.13;;;6.90;99.90;;;;;;4996140;28;20296;-75
2023/01/10 07:46:43;;;;;;;65.17;24.33;;;6.90;99.90;;;;;;4978291;28;20290;-76
2023/01/10 07:49:09;;;;;;;62.47;23.10;;;6.90;99.90;;;;;;4994798;28;20184;-75
2023/01/10 07:51:36;;;;;;;65.30;23.23;;;6.90;99.90;;;;;;4994819;28;20196;-77
2023/01/10 07:54:03;;;;;;;56.43;23.23;;;6.90;99.90;;;;;;4994703;28;20205;-78
2023/01/10 07:56:30;;;;;;;62.07;24.13;;;6.90;99.90;;;;;;4998788;28;20242;-78
2023/01/10 07:58:57;;;;;;;64.17;22.83;;;7.00;99.90;;;;;;4995800;28;20200;-75
2023/01/10 08:01:24;;;;;;;60.57;23.13;;;7.00;99.90;;;;;;4994842;28;20578;-77
2023/01/10 08:03:51;;;;;;;57.30;23.50;;;7.00;99.90;;;;;;4994861;28;20200;-77
2023/01/10 08:06:18;;;;;;;57.13;22.50;;;7.00;99.90;;;;;;5010426;28;20204;-76
2023/01/10 08:08:45;;;;;;;57.83;22.93;;;7.00;99.90;;;;;;4995505;28;20542;-76
2023/01/10 08:11:12;;;;;;;61.13;24.17;;;7.00;99.90;;;;;;4994741;28;20294;-76
2023/01/10 08:13:39;;;;;;;58.87;23.27;;;7.10;99.90;;;;;;4978286;28;20202;-77
2023/01/10 08:16:07;;;;;;;58.37;23.47;;;7.00;99.90;;;;;;5010445;28;20222;-75
2023/01/10 08:18:35;;;;;;;62.13;24.27;;;7.00;99.90;;;;;;5009803;28;20290;-75
2023/01/10 08:21:02;;;;;;;58.23;23.27;;;7.00;99.90;;;;;;5010672;28;20196;-74
2023/01/10 08:23:29;;;;;;;65.27;24.13;;;7.10;99.90;;;;;;4994201;28;20230;-78
2023/01/10 08:26:00;;;;;;;59.60;23.63;;;7.10;99.90;;;;;;4995482;28;20224;-77
2023/01/10 08:28:28;;;;;;;62.27;24.83;;;7.10;99.90;;;;;;4995527;28;20661;-78
2023/01/10 08:30:54;;;;;;;64.20;24.80;;;7.00;99.90;;;;;;4994353;28;20196;-79
2023/01/10 08:33:23;;;;;;;63.40;25.00;;;6.90;99.90;;;;;;5010668;28;20295;-79
2023/01/10 08:35:51;;;;;;;60.13;23.47;;;6.80;99.90;;;;;;5010281;28;20195;-78
2023/01/10 08:38:18;;;;;;;63.37;25.13;;;6.70;99.90;;;;;;5010430;28;20706;-80
2023/01/10 08:40:45;;;;;;;61.73;24.67;;;6.80;99.90;;;;;;4993924;28;20579;-78
2023/01/10 08:43:13;;;;;;;68.47;25.53;;;6.70;99.90;;;;;;5010092;28;20291;-78
2023/01/10 08:45:40;;;;;;;64.67;24.50;;;6.60;99.90;;;;;;4993732;28;20298;-77
2023/01/10 08:48:09;;;;;;;67.20;25.60;;;6.60;99.90;;;;;;5010606;28;20204;-77
2023/01/10 08:50:36;;;;;;;67.53;25.60;;;6.50;99.90;;;;;;4994679;28;20282;-76
2023/01/10 08:53:03;;;;;;;63.57;25.90;;;6.60;99.90;;;;;;5010337;28;20627;-76
2023/01/10 08:55:30;;;;;;;66.03;26.53;;;6.70;99.90;;;;;;4993532;28;20202;-77
2023/01/10 08:58:01;;;;;;;61.77;24.47;;;6.70;99.90;;;;;;4977254;28;20247;-78
2023/01/10 09:00:29;;;;;;;65.17;24.43;;;6.70;99.90;;;;;;4974738;28;20199;-77
2023/01/10 09:02:56;;;;;;;59.73;24.47;;;6.70;99.90;;;;;;4975686;28;20202;-76
2023/01/10 09:05:24;;;;;;;64.07;24.90;;;6.70;99.90;;;;;;4957772;28;20609;-77
2023/01/10 09:07:58;;;;;;;60.57;23.50;;;6.70;99.90;;;;;;4958449;28;20229;-79
2023/01/10 09:10:33;;;;;;;57.33;23.13;;;6.80;99.90;;;;;;4975726;28;20194;-77
2023/01/10 09:13:03;;;;;;;55.13;23.80;;;6.90;99.90;;;;;;4975012;28;20642;-77
2023/01/10 09:15:33;;;;;;;59.87;24.77;;;7.00;99.90;;;;;;4957216;28;20301;-80
2023/01/10 09:18:03;;;;;;;54.27;23.70;;;7.00;99.90;;;;;;4974873;28;20646;-79
2023/01/10 09:20:32;;;;;;;59.50;23.63;;;6.90;99.90;;;;;;4958011;28;20208;-80
2023/01/10 09:23:07;;;;;;;61.30;24.17;;;6.90;99.90;;;;;;4974913;28;20211;-78
2023/01/10 09:25:34;;;;;;;55.73;24.23;;;6.90;99.90;;;;;;4973726;28;20238;-80
2023/01/10 09:28:03;;;;;;;55.20;22.97;;;6.90;99.90;;;;;;4973471;28;20270;-77
2023/01/10 09:30:30;;;;;;;57.87;23.13;;;7.00;99.90;;;;;;4974923;28;20190;-79
2023/01/10 09:32:58;;;;;;;58.30;22.37;;;7.00;99.90;;;;;;4958324;28;20227;-80
2023/01/10 09:35:27;;;;;;;53.50;22.50;;;7.00;99.90;;;;;;4974710;28;20531;-80
2023/01/10 09:38:00;;;;;;;57.50;22.60;;;7.00;99.90;;;;;;4957350;28;20232;-79
2023/01/10 09:40:49;;;;;;;54.77;22.63;;;7.00;99.90;;;;;;4957495;28;20579;-81
2023/01/10 09:43:31;;;;;;;62.17;23.07;;;7.00;99.90;;;;;;4973596;28;20559;-79
2023/01/10 09:46:29;;;;;;;59.60;23.03;;;7.10;99.90;;;;;;4974618;28;20211;-80
2023/01/10 09:49:05;;;;;;;62.43;23.67;;;7.10;99.90;;;;;;4957733;28;20208;-81
2023/01/10 09:51:39;;;;;;;60.50;23.60;;;7.10;99.90;;;;;;4957784;28;20206;-81
2023/01/10 09:54:12;;;;;;;59.57;22.80;;;7.10;99.90;;;;;;4974322;28;20662;-78
2023/01/10 09:56:40;;;;;;;55.97;24.13;;;7.00;99.90;;;;;;4974240;28;20243;-78
2023/01/10 09:59:34;;;;;;;62.83;24.33;;;7.00;99.90;;;;;;4973388;28;20204;-78
2023/01/10 10:02:40;;;;;;;54.23;22.20;;;7.00;99.90;;;;;;4974220;28;20551;-80
2023/01/10 10:05:36;;;;;;;62.83;23.80;;;7.00;99.90;;;;;;4971733;28;20650;-78
2023/01/10 10:08:12;;;;;;;57.10;23.17;;;7.10;99.90;;;;;;4895985;29;20215;-78
2023/01/10 10:10:47;;;;;;;53.37;22.73;;;7.00;99.90;;;;;;4895725;29;20217;-77
2023/01/10 10:13:25;;;;;;;62.90;22.93;;;7.00;99.90;;;;;;4895740;29;20255;-77
2023/01/10 10:16:20;;;;;;;53.93;22.07;;;7.10;99.90;;;;;;4895852;29;20241;-78
2023/01/10 10:18:53;;;;;;;56.57;22.20;;;7.00;99.90;;;;;;4880035;29;20614;-77
2023/01/10 10:21:37;;;;;;;57.33;22.77;;;7.00;99.90;;;;;;4895941;29;20603;-78
2023/01/10 10:24:24;;;;;;;57.53;22.40;;;6.90;99.90;;;;;;4895469;29;20290;-78
2023/01/10 10:26:58;;;;;;;60.33;22.83;;;6.90;99.90;;;;;;4895799;29;20199;-79
2023/01/10 10:29:54;;;;;;;55.03;23.43;;;7.00;99.90;;;;;;4880336;29;20285;-78
2023/01/10 10:32:53;;;;;;;56.70;22.63;;;7.10;99.90;;;;;;4882944;29;20258;-78
2023/01/10 10:35:36;;;;;;;57.80;23.33;;;6.90;99.90;;;;;;4895653;29;20243;-79
2023/01/10 10:38:17;;;;;;;56.27;23.00;;;7.00;99.90;;;;;;4895809;29;20897;-79
2023/01/10 10:40:46;;;;;;;53.70;21.77;;;7.10;99.90;;;;;;4897450;29;20208;-77
2023/01/10 10:43:20;;;;;;;58.83;23.47;;;7.00;99.90;;;;;;4899409;29;20295;-79
2023/01/10 10:45:56;;;;;;;54.07;22.10;;;7.00;99.90;;;;;;4960364;28;20649;-77
2023/01/10 10:48:32;;;;;;;55.47;22.70;;;7.10;99.90;;;;;;4976745;28;20200;-77
2023/01/10 10:51:33;;;;;;;55.30;23.03;;;7.00;99.90;;;;;;4976778;28;20216;-79
2023/01/10 10:54:00;;;;;;;56.13;22.07;;;7.00;99.90;;;;;;4976599;28;20207;-78
2023/01/10 10:56:27;;;;;;;60.77;23.47;;;7.10;99.90;;;;;;4967213;28;20583;-78
2023/01/10 10:58:57;;;;;;;53.93;22.80;;;7.10;99.90;;;;;;4995774;28;20215;-78
2023/01/10 11:01:25;;;;;;;61.80;22.87;;;7.00;99.90;;;;;;4996003;28;20235;-78
2023/01/10 11:04:00;;;;;;;58.40;23.23;;;7.10;99.90;;;;;;4996212;28;20287;-79
2023/01/10 11:06:29;;;;;;;60.60;23.13;;;7.10;99.90;;;;;;5012084;28;20190;-79
2023/01/10 11:09:02;;;;;;;53.13;22.13;;;7.10;99.90;;;;;;4995893;28;20613;-78
2023/01/10 11:11:34;;;;;;;55.17;22.67;;;7.10;99.90;;;;;;5011998;28;20199;-79
2023/01/10 11:14:04;;;;;;;59.53;22.97;;;7.10;99.90;;;;;;5011979;28;20217;-76
2023/01/10 11:16:40;;;;;;;55.93;23.53;;;7.00;99.90;;;;;;5011783;28;20200;-77
2023/01/10 11:19:16;;;;;;;63.27;23.47;;;7.00;99.90;;;;;;4997065;28;20194;-78
2023/01/10 11:22:05;;;;;;;55.30;23.83;;;6.90;99.90;;;;;;4995902;28;20685;-79
2023/01/10 11:24:43;;;;;;;55.90;23.17;;;6.90;99.90;;;;;;4996833;28;20224;-80
2023/01/10 11:27:16;;;;;;;57.70;22.73;;;6.90;99.90;;;;;;4996653;28;20246;-78
2023/01/10 11:29:50;;;;;;;56.57;23.33;;;6.90;99.90;;;;;;4996857;28;20287;-78
2023/01/10 11:32:21;;;;;;;56.27;22.70;;;6.90;99.90;;;;;;5011836;28;20189;-80
2023/01/10 11:34:52;;;;;;;55.27;23.47;;;7.00;99.90;;;;;;5011645;28;20655;-79
2023/01/10 11:37:28;;;;;;;55.47;22.43;;;7.00;99.90;;;;;;4995255;28;20220;-78
2023/01/10 11:40:22;;;;;;;56.00;22.40;;;7.00;99.90;;;;;;4997137;28;20708;-80
2023/01/10 11:42:53;;;;;;;53.33;21.67;;;7.10;99.90;;;;;;5011571;28;20212;-77
2023/01/10 11:45:25;;;;;;;57.23;22.07;;;7.20;99.90;;;;;;4994833;28;20211;-77
2023/01/10 11:48:07;;;;;;;51.80;21.17;;;7.10;99.90;;;;;;5011933;28;20256;-80
2023/01/10 11:50:38;;;;;;;56.13;22.23;;;7.10;99.90;;;;;;4994997;28;20274;-79
2023/01/10 11:53:20;;;;;;;49.63;20.67;;;7.20;99.90;;;;;;5009701;28;20311;-77
2023/01/10 11:55:48;;;;;;;54.17;20.83;;;7.10;99.90;;;;;;5011489;28;20231;-79
2023/01/10 11:58:15;;;;;;;47.50;19.87;;;7.10;99.90;;;;;;4996268;28;20223;-76
2023/01/10 12:00:46;;;;;;;49.63;20.30;;;7.10;99.90;;;;;;5011303;28;20205;-79
2023/01/10 12:03:27;;;;;;;46.10;19.17;;;7.10;99.90;;;;;;5011385;28;20210;-78
2023/01/10 12:05:58;;;;;;;45.93;19.67;;;7.10;99.90;;;;;;4994866;28;20687;-78
2023/01/10 12:08:29;;;;;;;48.70;18.87;;;7.20;99.90;;;;;;4996366;28;20200;-78
2023/01/10 12:11:00;;;;;;;48.20;18.90;;;7.20;99.90;;;;;;4994632;28;20230;-78
2023/01/10 12:13:29;;;;;;;42.90;17.90;;;7.30;99.90;;;;;;4994490;28;20303;-78
2023/01/10 12:16:21;;;;;;;41.20;18.17;;;7.30;99.90;;;;;;4994930;28;20211;-78
2023/01/10 12:18:51;;;;;;;42.63;18.57;;;7.20;99.90;;;;;;5011298;28;20229;-77
2023/01/10 12:21:25;;;;;;;46.77;19.07;;;7.10;99.90;;;;;;5011159;28;20291;-77
2023/01/10 12:23:57;;;;;;;44.97;18.33;;;7.10;99.90;;;;;;5010492;28;20194;-77
2023/01/10 12:26:27;;;;;;;45.30;17.57;;;7.20;99.90;;;;;;5010412;28;20606;-78
2023/01/10 12:28:58;;;;;;;41.97;18.17;;;7.20;99.90;;;;;;5010479;28;20667;-77
2023/01/10 12:31:30;;;;;;;40.70;18.33;;;7.10;99.90;;;;;;4995220;28;20196;-77
2023/01/10 12:34:25;;;;;;;44.17;18.93;;;7.10;99.90;;;;;;5010567;28;20317;-80
2023/01/10 12:37:13;;;;;;;43.77;18.07;;;7.10;99.90;;;;;;5009228;28;20222;-75
2023/01/10 12:39:54;;;;;;;38.37;16.93;;;7.20;99.90;;;;;;4993255;28;20242;-75
2023/01/10 12:45:18;;;;;;;38.00;17.03;;;7.20;99.90;;;;;;5009742;28;20200;-74
2023/01/10 12:47:51;;;;;;;37.00;16.10;;;7.20;99.90;;;;;;4994762;28;20199;-76
2023/01/10 12:50:24;;;;;;;36.97;16.20;;;7.20;99.90;;;;;;5009620;28;20199;-76
2023/01/10 12:53:22;;;;;;;35.80;15.87;;;7.20;99.90;;;;;;5010251;28;20212;-75
2023/01/10 12:55:53;;;;;;;38.60;16.53;;;7.20;99.90;;;;;;5009814;28;20203;-76
2023/01/10 12:58:29;;;;;;;38.40;17.33;;;7.10;99.90;;;;;;5009902;28;20235;-75
2023/01/10 13:00:59;;;;;;;38.73;16.13;;;7.10;99.90;;;;;;5010300;28;20227;-78
2023/01/10 13:03:32;;;;;;;37.37;16.60;;;7.20;99.90;;;;;;4995060;28;20206;-77
2023/01/10 13:06:00;;;;;;;36.20;15.17;;;7.10;99.90;;;;;;4995067;28;20192;-77